Air Resources Laboratory banner image
Air Resources Laboratory web site National Oceanic and Atmospheric Administration (NOAA)

mi metar


KACB 170355Z AUTO 00000KT 10SM CLR 14/13 A3016 RMK AO2 T01370128=
KAMN 170355Z AUTO 00000KT 10SM CLR 17/14 A3014 RMK AO2 T01660140=
KANJ 170355Z AUTO 00000KT 10SM CLR 16/12 A3015 RMK AO2 SLP207 T01560122=
KAPN 170354Z AUTO 00000KT 10SM CLR 14/13 A3015 RMK AO2 SLP208 T01440133=
KARB 170407Z AUTO 00000KT 2 1/2SM BR CLR 14/13 A3010 RMK AO2 T01440133=
KAZO 170353Z AUTO 00000KT 10SM CLR 19/15 A3011 RMK AO2 SLP193 T01940150=
KBAX 170355Z AUTO 00000KT 10SM CLR 14/14 A3012 RMK AO2 T01410141=
KBIV 170353Z AUTO 00000KT 10SM CLR 20/14 A3012 RMK AO2 SLP195 T02000144=
KBTL 170353Z AUTO 06003KT 10SM CLR 19/15 A3012 RMK AO2 SLP194 T01940150=
KCAD 170355Z AUTO 00000KT 10SM CLR 14/13 A3016 RMK AO2 T01370132=
KCIU 170356Z AUTO 32003KT 10SM FEW085 17/12 A3017 RMK AO2 SLP212 T01720117=
KCMX 170353Z AUTO 08004KT 10SM CLR 17/13 A3017 RMK AO2 SLP215 T01670133=
KDTW 170353Z COR 02003KT 10SM FEW110 SCT250 20/13 A3010 RMK AO2 SLP189
 T02000133 =
KERY 170355Z AUTO 00000KT 10SM CLR 14/11 A3017 RMK AO2 T01410113=
KESC 170356Z AUTO 28004KT 10SM CLR 14/14 A3017 RMK AO2 SLP218 T01390139=
KGLR 170353Z AUTO 00000KT 10SM CLR 16/11 A3018 RMK AO2 SLP215 T01560111=
KGRR 170353Z 03005KT 10SM FEW100 18/14 A3013 RMK AO2 SLP198 LAST T01780139=
KHTL 170353Z AUTO 00000KT 9SM CLR 13/12 A3017 RMK AO2 SLP215 T01280117 $=
KIMT 170354Z AUTO 00000KT 10SM CLR 18/14 A3018 RMK AO2 SLP216 T01780144=
KIRS 170355Z AUTO 00000KT 10SM CLR 17/16 A3010 RMK AO2 T01700157=
KISQ 170355Z AUTO 00000KT 10SM CLR 15/12 A3017 RMK AO2 T01500122 402450113=
KIWD 170356Z AUTO 00000KT 10SM FEW100 BKN110 15/14 A3017 RMK AO2 SLP214
 T01500139=
KJYM 170355Z AUTO 00000KT 1/2SM FG BKN002 14/14 A3011 RMK AO2 T01440135 P0001=
KLDM 170355Z AUTO 00000KT 10SM CLR 16/15 A3014 RMK AO2 T01570149=
KMBL 170356Z AUTO 13003KT 10SM CLR 14/14 A3014 RMK AO2 SLP205 T01440139
 402670106=
KMCD 170355Z AUTO 34004KT 10SM CLR 16/12 A3016 RMK AO2 T01600122 402420150=
KMKG 170355Z AUTO 05005KT 10SM SCT110 21/15 A3013 RMK AO2 SLP199 T02060150=
KMNM 170356Z AUTO 00000KT 9SM SCT090 16/16 A3018 RMK AO2 SLP216 T01560156 $=
KMOP 170355Z AUTO 00000KT 10SM CLR 14/13 A3014 RMK AO2 T01360134=
KMTC 170356Z AUTO 00000KT 10SM CLR 17/16 A3007 RMK AO2 SLP185 T01650163=
KOEB 170355Z AUTO 05004KT 10SM CLR 17/15 A3011 RMK AO2 T01660147=
KONZ 170355Z AUTO 04004KT 10SM BKN110 19/17 A3008 RMK AO2 T01900173=
KOSC 170355Z AUTO 00000KT 10SM CLR 15/15 A3014 RMK AO2 T01530150=
KOZW 170355Z AUTO 00000KT 10SM CLR 18/14 A3012 RMK AO2 T01750140=
KP58 170355Z AUTO 03008KT 21/18 A3011 RMK AO1 SLP190 T02110183=
KP59 170351Z AUTO 24007KT 18/14 A3016 RMK AO1 SLP207 T01780139 $=
KPHN 170355Z AUTO 00000KT 1 3/4SM BR VV007 15/14 A3011 RMK AO2 VIS 3/4=
KPLN 170354Z AUTO 00000KT 10SM FEW070 13/13 A3017 RMK AO2 SLP215 T01330128=
KRMY 170355Z AUTO 00000KT 10SM CLR 16/15 A3011 RMK AO2 T01620150=
KRQB 170355Z AUTO 00000KT 10SM CLR 17/16 A3015 RMK AO2 T01730160=
KSAW 170358Z AUTO 00000KT 10SM CLR 13/12 A3019 RMK AO2 T01260116=
KTEW 170355Z AUTO 00000KT 10SM CLR 16/15 A3012 RMK AO2 T01630151=
KTTF 170355Z AUTO 02004KT 10SM CLR 18/14 A3009 RMK AO2 T01800140 402630150=
KTVC 170353Z AUTO 12003KT 10SM CLR 15/13 A3014 RMK AO2 SLP204 T01500133=